• Join FlightAware (Why Join?)
  • Login
  • US Flag 
09:54PM EST


 

Airport Tracker/Info


-or-


 

Live Flight TrackerFlight Track Log ✈ UAL6008 ✈ 29-Aug-2014 ✈ KORD - KFSD

Flight Track Log - Related Links

Times and Time Zones

All times are in EDT time to prevent confusion due to time zone crossing. See the UAL6008 flight status page for this flight to view local times or setup timezone preferences in your user account.

Time Position Orientation Groundspeed Altitude Reporting Facility
EDT Latitude Longitude Course Direction KTS MPH feet Rate Location/Type
10:46PM 41.9667 -87.9667 289° West 180 207 2,900  Level Chicago TRACON
10:47PM 41.9833 -88.0500 285° West 237 273 4,700 2,100 Climbing Chicago TRACON
10:48PM 41.9833 -88.1333 270° West 251 289 7,400 2,580 Climbing Chicago TRACON
10:49PM 42.0680 -88.3046 285° West  Level Estimated
10:49PM 42.0167 -88.2167 298° West 289 333 9,900  Level Chicago TRACON
10:50PM 42.0973 -88.4373 282° West  Level Estimated
10:51PM 42.1109 -88.5745 278° West  Level FlightAware Approximate
10:51PM 42.0122 -88.3500 267° West 273 314 11,700  Level Chicago Center
10:52PM 42.1401 -88.7073 289° West  Level Estimated
10:52PM 42.0064 -88.4525 266° West 304 350 13,800  Level Chicago Center
10:53PM 42.0531 -88.5653 299° West 321 369 16,100 1,740 Climbing Chicago Center
10:54PM 42.0950 -88.6531 303° West 314 361 17,400 1,320 Climbing Chicago Center
10:55PM 42.1433 -88.7639 300° West 340 391 18,900 1,500 Climbing Chicago Center
10:56PM 42.1597 -88.9039 279° West 345 397 20,500 1,440 Climbing Chicago Center
10:57PM 42.1572 -89.0314 269° West 341 392 21,900 1,320 Climbing Chicago Center
10:58PM 42.1539 -89.1631 268° West 345 397 23,300 1,260 Climbing Chicago Center
10:59PM 42.1508 -89.2944 268° West 349 402 24,500 1,140 Climbing Chicago Center
11:00PM 42.1461 -89.4261 267° West 349 402 25,700 1,140 Climbing Chicago Center
11:01PM 42.1425 -89.5594 268° West 351 404 26,900 1,140 Climbing Chicago Center
11:02PM 42.1406 -89.6969 269° West 363 418 28,100 1,140 Climbing Chicago Center
11:03PM 42.1358 -89.8300 267° West 361 415 29,300 1,200 Climbing Chicago Center
11:04PM 42.1308 -89.9719 267° West 360 414 30,600 1,260 Climbing Chicago Center
11:05PM 42.1264 -90.1069 268° West 361 415 31,900 660 Climbing Chicago Center
11:06PM 42.1217 -90.2453 267° West 367 422 32,000  Climbing Chicago Center
11:07PM 42.1158 -90.3967 267° West 398 458 32,000  Level Chicago Center
11:08PM 42.1103 -90.5561 267° West 419 482 32,000  Level Chicago Center
11:09PM 42.1033 -90.7186 267° West 429 494 32,000  Level Chicago Center
11:10PM 42.0972 -90.8803 267° West 435 501 32,000  Level Chicago Center
11:11PM 42.0897 -91.0436 267° West 434 499 32,000  Level Chicago Center
11:12PM 42.0814 -91.2058 266° West 435 501 32,000  Level Chicago Center
11:13PM 42.1078 -91.4000 280° West 442 509 32,000  Level Chicago Center
11:14PM 42.1481 -91.5608 289° West 448 516 32,000  Level Chicago Center
11:15PM 42.1864 -91.7228 288° West 449 517 32,000  Level Chicago Center
11:16PM 42.2258 -91.8828 288° West 449 517 32,000  Level Chicago Center
11:17PM 42.2642 -92.0444 288° West 450 518 32,000  Level Chicago Center
11:18PM 42.3031 -92.2072 288° West 450 518 32,000  Level Chicago Center
11:19PM 42.3417 -92.3686 288° West 450 518 32,000 240 Level Chicago Center
11:20PM 42.3786 -92.5253 288° West 443 510 32,600 780 Climbing Chicago Center
11:21PM 42.4136 -92.6733 288° West 418 481 33,700 660 Climbing Chicago Center
11:22PM 42.4475 -92.8206 287° West 412 474 34,000 120 Climbing Chicago Center
11:23PM 42.4819 -92.9719 287° West 420 483 34,000  Level Chicago Center
11:24PM 42.5119 -93.1283 285° West 431 496 34,000  Level Chicago Center
11:25PM 42.5256 -93.2856 277° West 424 488 34,000  Level Chicago Center
11:26PM 42.5400 -93.4447 277° West 425 489 34,000  Level Chicago Center
11:27PM 42.5525 -93.6075 276° West 430 495 34,000  Level Chicago Center
11:28PM 42.5681 -93.7722 277° West 435 501 34,000  Level Chicago Center
11:29PM 42.5839 -93.9678 276° West 438 504 34,000  Level Chicago Center
11:30PM 42.5975 -94.1253 277° West 427 491 34,000  Level Chicago Center
11:32PM 42.6169 -94.3119 278° West 420 483 34,000  Level Minneapolis Center
11:33PM 42.6781 -94.4550 300° West 436 502 34,000  Level Minneapolis Center
11:34PM 42.7381 -94.6014 299° West 437 503 34,000 -300 Level Minneapolis Center
11:35PM 42.7972 -94.7467 299° West 437 503 33,400 -1,020 Descending Minneapolis Center
11:36PM 42.8567 -94.8961 299° West 442 509 32,000 -1,440 Descending Minneapolis Center
11:37PM 42.9183 -95.0458 299° West 449 517 30,500 -1,620 Descending Minneapolis Center
11:38PM 42.9775 -95.1958 298° West 450 518 28,800 -1,860 Descending Minneapolis Center
11:39PM 43.0372 -95.3422 299° West 446 513 26,800 -2,100 Descending Minneapolis Center
11:40PM 43.0978 -95.4928 299° West 446 513 24,600 -2,340 Descending Minneapolis Center
11:41PM 43.1561 -95.6408 298° West 446 513 22,100 -2,760 Descending Minneapolis Center
11:42PM 43.2208 -95.8069 298° West 425 489 19,000 -2,880 Descending Minneapolis Center
11:43PM 43.2717 -95.9342 299° West 397 457 16,300 -2,580 Descending Minneapolis Center
11:44PM 43.3189 -96.0583 298° West 377 434 13,800 -2,520 Descending Minneapolis Center
11:45PM 43.3586 -96.1825 294° West 365 420 11,200 -1,920 Descending Minneapolis Center
11:46PM 43.3822 -96.3028 285° West 346 398 9,900 -1,500 Descending Minneapolis Center
11:47PM 43.4050 -96.4064 287° West 320 368 8,200 -1,620 Descending Minneapolis Center
11:48PM 43.4253 -96.5025 286° West 293 337 6,700 -1,680 Descending Minneapolis Center
11:49PM 43.4447 -96.5944 286° West 272 313 4,900 -1,800 Descending Minneapolis Center
11:50PM 43.4644 -96.6867 286° West 261 300 3,100 -960 Descending Minneapolis Center
11:51PM 43.4792 -96.7581 286° West 227 261 3,000 -180 Descending Minneapolis Center
11:52PM 43.5022 -96.8061 303° West 182 209 2,800 -360 Descending Minneapolis Center
11:53PM 43.5367 -96.7881 21° North 151 174 2,300 -600 Descending Minneapolis Center
11:54PM 43.5683 -96.7581 34° Northeast 141 162 1,600 -720 Descending Minneapolis Center